Observation data for Silverton on 07/02/2020      Previous  Date  Next       Current Mesonet Observations  Soil Data  Daily Summary Page  Observations in Plain Language
KSVS 020500Z 19015G23KT 27/15 A2998 RMK A01 T02650150  RH  052%=      5-min Rain = 0
KSVS 020505Z 19015G24KT 26/15 A2998 RMK A01 T02640150  RH  052%=      5-min Rain = 0
KSVS 020510Z 19015G21KT 26/15 A2998 RMK A01 T02630150  RH  052%=      5-min Rain = 0
KSVS 020515Z 19014G20KT 26/15 A2998 RMK A01 T02620150  RH  052%=      5-min Rain = 0
KSVS 020520Z 20015G21KT 26/15 A2998 RMK A01 T02620148  RH  052%=      5-min Rain = 0
KSVS 020525Z 19016G24KT 26/15 A2998 RMK A01 T02620146  RH  051%=      5-min Rain = 0
KSVS 020530Z 20017G24KT 26/14 A2998 RMK A01 T02630143  RH  050%=      5-min Rain = 0
KSVS 020535Z 20016G22KT 26/14 A2998 RMK A01 T02610144  RH  050%=      5-min Rain = 0
KSVS 020540Z 20015G20KT 26/14 A2997 RMK A01 T02600143  RH  050%=      5-min Rain = 0
KSVS 020545Z 20015G20KT 26/14 A2997 RMK A01 T02610140  RH  049%=      5-min Rain = 0
KSVS 020550Z 20015G20KT 26/14 A2997 RMK A01 T02620137  RH  048%=      5-min Rain = 0
KSVS 020555Z 21015G25KT 26/14 A2997 RMK A01 T02620135  RH  047%=      5-min Rain = 0
KSVS 020600Z 21017G22KT 26/13 A2997 RMK A01 T02640133  RH  046%=      5-min Rain = 0
KSVS 020605Z 21015G22KT 26/13 A2997 RMK A01 T02640132  RH  046%=      5-min Rain = 0
KSVS 020610Z 21014G21KT 26/13 A2997 RMK A01 T02630130  RH  046%=      5-min Rain = 0
KSVS 020615Z 21014G20KT 26/13 A2997 RMK A01 T02640129  RH  045%=      5-min Rain = 0
KSVS 020620Z 20012G18KT 26/13 A2997 RMK A01 T02630128  RH  045%=      5-min Rain = 0
KSVS 020625Z 20012G17KT 26/13 A2997 RMK A01 T02630126  RH  044%=      5-min Rain = 0
KSVS 020630Z 21013KT 26/13 A2997 RMK A01 T02630126  RH  044%=      5-min Rain = 0
KSVS 020635Z 21013KT 26/13 A2997 RMK A01 T02630125  RH  044%=      5-min Rain = 0
KSVS 020640Z 21012G19KT 26/13 A2997 RMK A01 T02620125  RH  044%=      5-min Rain = 0
KSVS 020645Z 21013KT 26/12 A2997 RMK A01 T02630124  RH  044%=      5-min Rain = 0
KSVS 020650Z 22013G18KT 26/13 A2997 RMK A01 T02630126  RH  044%=      5-min Rain = 0
KSVS 020655Z 22012KT 26/13 A2997 RMK A01 T02600127  RH  045%=      5-min Rain = 0
KSVS 020700Z 23012KT 26/13 A2997 RMK A01 T02580128  RH  046%=      5-min Rain = 0
KSVS 020705Z 22012G17KT 26/13 A2997 RMK A01 T02560131  RH  048%=      5-min Rain = 0
KSVS 020710Z 22013KT 26/13 A2997 RMK A01 T02550134  RH  049%=      5-min Rain = 0
KSVS 020715Z 22012G17KT 25/14 A2997 RMK A01 T02540135  RH  050%=      5-min Rain = 0
KSVS 020720Z 23011KT 25/14 A2997 RMK A01 T02520135  RH  050%=      5-min Rain = 0
KSVS 020725Z 23009KT 25/14 A2997 RMK A01 T02500135  RH  051%=      5-min Rain = 0
KSVS 020730Z 23009KT 25/14 A2997 RMK A01 T02490135  RH  051%=      5-min Rain = 0
KSVS 020735Z 23010KT 25/14 A2997 RMK A01 T02480136  RH  052%=      5-min Rain = 0
KSVS 020740Z 23009KT 25/14 A2997 RMK A01 T02470137  RH  053%=      5-min Rain = 0
KSVS 020745Z 23010KT 25/14 A2997 RMK A01 T02450138  RH  053%=      5-min Rain = 0
KSVS 020750Z 24009KT 24/14 A2997 RMK A01 T02440139  RH  054%=      5-min Rain = 0
KSVS 020755Z 24008KT 24/14 A2996 RMK A01 T02410138  RH  055%=      5-min Rain = 0
KSVS 020800Z 24008KT 24/14 A2996 RMK A01 T02400139  RH  055%=      5-min Rain = 0
KSVS 020805Z 25009KT 24/14 A2996 RMK A01 T02410139  RH  055%=      5-min Rain = 0
KSVS 020810Z 24008KT 24/14 A2996 RMK A01 T02400139  RH  056%=      5-min Rain = 0
KSVS 020815Z 24007KT 24/14 A2996 RMK A01 T02370139  RH  057%=      5-min Rain = 0
KSVS 020820Z 25007KT 23/14 A2996 RMK A01 T02340139  RH  058%=      5-min Rain = 0
KSVS 020825Z 25007KT 23/14 A2997 RMK A01 T02300138  RH  059%=      5-min Rain = 0
KSVS 020830Z 25006KT 23/14 A2997 RMK A01 T02270138  RH  060%=      5-min Rain = 0
KSVS 020835Z 25007KT 22/14 A2997 RMK A01 T02230138  RH  061%=      5-min Rain = 0
KSVS 020840Z 25007KT 22/14 A2997 RMK A01 T02240139  RH  061%=      5-min Rain = 0
KSVS 020845Z 25008KT 22/14 A2996 RMK A01 T02230139  RH  061%=      5-min Rain = 0
KSVS 020850Z 25008KT 23/14 A2996 RMK A01 T02250140  RH  061%=      5-min Rain = 0
KSVS 020855Z 26008KT 23/14 A2996 RMK A01 T02280141  RH  060%=      5-min Rain = 0
KSVS 020900Z 25008KT 23/14 A2996 RMK A01 T02300141  RH  060%=      5-min Rain = 0
KSVS 020905Z 25007KT 23/14 A2996 RMK A01 T02310142  RH  060%=      5-min Rain = 0
KSVS 020910Z 25008KT 23/14 A2996 RMK A01 T02330142  RH  059%=      5-min Rain = 0
KSVS 020915Z 25008KT 24/14 A2996 RMK A01 T02350143  RH  059%=      5-min Rain = 0
KSVS 020920Z 26008KT 24/14 A2996 RMK A01 T02360143  RH  058%=      5-min Rain = 0
KSVS 020925Z 25008KT 24/14 A2996 RMK A01 T02370143  RH  058%=      5-min Rain = 0
KSVS 020930Z 25008KT 24/14 A2996 RMK A01 T02380143  RH  058%=      5-min Rain = 0
KSVS 020935Z 25008KT 24/14 A2996 RMK A01 T02390143  RH  058%=      5-min Rain = 0
KSVS 020940Z 25008KT 24/14 A2996 RMK A01 T02390143  RH  057%=      5-min Rain = 0
KSVS 020945Z 25008KT 24/14 A2996 RMK A01 T02400143  RH  057%=      5-min Rain = 0
KSVS 020950Z 25008KT 24/14 A2997 RMK A01 T02390143  RH  057%=      5-min Rain = 0
KSVS 020955Z 25008KT 24/14 A2997 RMK A01 T02390143  RH  057%=      5-min Rain = 0
KSVS 021000Z 25006KT 24/14 A2997 RMK A01 T02390143  RH  057%=      5-min Rain = 0
KSVS 021005Z 28002KT 24/14 A2998 RMK A01 T02380143  RH  058%=      5-min Rain = 0
KSVS 021010Z 07004KT 23/14 A2998 RMK A01 T02290143  RH  061%=      5-min Rain = 0
KSVS 021015Z 08004KT 22/14 A2999 RMK A01 T02220143  RH  064%=      5-min Rain = 0
KSVS 021020Z 28001KT 22/14 A2998 RMK A01 T02240143  RH  063%=      5-min Rain = 0
KSVS 021025Z 20002KT 22/14 A2999 RMK A01 T02240144  RH  063%=      5-min Rain = 0
KSVS 021030Z 16002KT 22/14 A2999 RMK A01 T02180143  RH  065%=      5-min Rain = 0
KSVS 021035Z 19002KT 22/14 A2999 RMK A01 T02170144  RH  066%=      5-min Rain = 0
KSVS 021040Z 19003KT 22/14 A2999 RMK A01 T02150144  RH  067%=      5-min Rain = 0
KSVS 021045Z 18003KT 22/15 A2999 RMK A01 T02150145  RH  067%=      5-min Rain = 0
KSVS 021050Z 19004KT 22/14 A2998 RMK A01 T02150144  RH  067%=      5-min Rain = 0
KSVS 021055Z 20004KT 22/14 A2998 RMK A01 T02200144  RH  065%=      5-min Rain = 0
KSVS 021100Z 21005KT 22/15 A2999 RMK A01 T02220145  RH  064%=      5-min Rain = 0
KSVS 021105Z 22005KT 21/14 A2999 RMK A01 T02130144  RH  068%=      5-min Rain = 0
KSVS 021110Z 21005KT 21/14 A2999 RMK A01 T02100144  RH  069%=      5-min Rain = 0
KSVS 021115Z 22005KT 21/15 A2999 RMK A01 T02080145  RH  070%=      5-min Rain = 0
KSVS 021120Z 23005KT 21/15 A2999 RMK A01 T02070145  RH  070%=      5-min Rain = 0
KSVS 021125Z 23005KT 21/14 A2999 RMK A01 T02080142  RH  069%=      5-min Rain = 0
KSVS 021130Z 22005KT 21/14 A2999 RMK A01 T02070141  RH  069%=      5-min Rain = 0
KSVS 021135Z 18004KT 21/14 A2999 RMK A01 T02050144  RH  071%=      5-min Rain = 0
KSVS 021140Z 18005KT 20/15 A2999 RMK A01 T02010145  RH  073%=      5-min Rain = 0
KSVS 021145Z 19006KT 21/14 A2999 RMK A01 T02140143  RH  067%=      5-min Rain = 0
KSVS 021150Z 20007KT 21/14 A2999 RMK A01 T02130142  RH  067%=      5-min Rain = 0
KSVS 021155Z 20007KT 21/14 A2999 RMK A01 T02050142  RH  070%=      5-min Rain = 0
KSVS 021200Z 20006KT 21/14 A2999 RMK A01 T02080142  RH  069%=      5-min Rain = 0
KSVS 021205Z 19006KT 21/14 A2999 RMK A01 T02120143  RH  067%=      5-min Rain = 0
KSVS 021210Z 19007KT 22/14 A2999 RMK A01 T02180144  RH  066%=      5-min Rain = 0
KSVS 021215Z 20006KT 22/15 A2999 RMK A01 T02160147  RH  068%=      5-min Rain = 0
KSVS 021220Z 21006KT 22/15 A2999 RMK A01 T02170148  RH  068%=      5-min Rain = 0
KSVS 021225Z 21006KT 22/15 A2999 RMK A01 T02210147  RH  066%=      5-min Rain = 0
KSVS 021230Z 21005KT 22/15 A30 RMK A01 T02220147  RH  065%=      5-min Rain = 0
KSVS 021235Z 21006KT 23/15 A30 RMK A01 T02250148  RH  065%=      5-min Rain = 0
KSVS 021240Z 21006KT 23/15 A2999 RMK A01 T02290149  RH  063%=      5-min Rain = 0
KSVS 021245Z 21006KT 24/15 A30 RMK A01 T02350149  RH  061%=      5-min Rain = 0
KSVS 021250Z 21005KT 24/15 A30 RMK A01 T02400149  RH  059%=      5-min Rain = 0
KSVS 021255Z 22006KT 24/15 A30 RMK A01 T02440149  RH  058%=      5-min Rain = 0
KSVS 021300Z 23008KT 25/15 A2999 RMK A01 T02460149  RH  057%=      5-min Rain = 0
KSVS 021305Z 23009KT 25/15 A2999 RMK A01 T02480149  RH  056%=      5-min Rain = 0
KSVS 021310Z 23010KT 25/15 A2999 RMK A01 T02510149  RH  055%=      5-min Rain = 0
KSVS 021315Z 23009KT 25/15 A2999 RMK A01 T02530149  RH  055%=      5-min Rain = 0
KSVS 021320Z 22009KT 26/15 A30 RMK A01 T02550149  RH  054%=      5-min Rain = 0
KSVS 021325Z 22008KT 26/15 A30 RMK A01 T02590151  RH  054%=      5-min Rain = 0
KSVS 021330Z 21008KT 26/15 A3001 RMK A01 T02630152  RH  053%=      5-min Rain = 0
KSVS 021335Z 21009KT 27/15 A3001 RMK A01 T02670152  RH  052%=      5-min Rain = 0
KSVS 021340Z 21010KT 27/15 A3001 RMK A01 T02690151  RH  051%=      5-min Rain = 0
KSVS 021345Z 22011KT 27/15 A3001 RMK A01 T02690151  RH  051%=      5-min Rain = 0
KSVS 021350Z 22010KT 27/15 A3001 RMK A01 T02730152  RH  050%=      5-min Rain = 0
KSVS 021355Z 21012KT 27/15 A3001 RMK A01 T02740153  RH  050%=      5-min Rain = 0
KSVS 021400Z 22011KT 28/15 A3001 RMK A01 T02770153  RH  049%=      5-min Rain = 0
KSVS 021405Z 21011KT 28/16 A3002 RMK A01 T02810155  RH  048%=      5-min Rain = 0
KSVS 021410Z 22011KT 28/16 A3002 RMK A01 T02840156  RH  048%=      5-min Rain = 0
KSVS 021415Z 23011KT 29/16 A3002 RMK A01 T02850157  RH  048%=      5-min Rain = 0
KSVS 021420Z 22011KT 29/16 A3002 RMK A01 T02890159  RH  047%=      5-min Rain = 0
KSVS 021425Z 22011KT 29/16 A3003 RMK A01 T02910160  RH  047%=      5-min Rain = 0
KSVS 021430Z 22012KT 29/16 A3003 RMK A01 T02900160  RH  047%=      5-min Rain = 0
KSVS 021435Z 22012KT 29/16 A3003 RMK A01 T02910160  RH  047%=      5-min Rain = 0
KSVS 021440Z 22011KT 29/16 A3003 RMK A01 T02930161  RH  047%=      5-min Rain = 0
KSVS 021445Z 22010KT 30/16 A3003 RMK A01 T02980162  RH  046%=      5-min Rain = 0
KSVS 021450Z 22011KT 30/16 A3003 RMK A01 T03000162  RH  046%=      5-min Rain = 0
KSVS 021455Z 22010G15KT 30/16 A3003 RMK A01 T03000162  RH  046%=      5-min Rain = 0
KSVS 021500Z 22011KT 30/16 A3003 RMK A01 T02990161  RH  045%=      5-min Rain = 0
KSVS 021505Z 22011KT 30/16 A3003 RMK A01 T02970160  RH  046%=      5-min Rain = 0
KSVS 021510Z 22010KT 30/16 A3003 RMK A01 T03020160  RH  044%=      5-min Rain = 0
KSVS 021515Z 22010KT 30/16 A3003 RMK A01 T03040160  RH  044%=      5-min Rain = 0
KSVS 021520Z 22009KT 31/16 A3003 RMK A01 T03060160  RH  043%=      5-min Rain = 0
KSVS 021525Z 21009G14KT 30/16 A3003 RMK A01 T03030159  RH  044%=      5-min Rain = 0
KSVS 021530Z 22009KT 31/16 A3003 RMK A01 T03070159  RH  043%=      5-min Rain = 0
KSVS 021535Z 23010G15KT 31/16 A3003 RMK A01 T03060157  RH  042%=      5-min Rain = 0
KSVS 021540Z 22008G14KT 31/16 A3003 RMK A01 T03080157  RH  042%=      5-min Rain = 0
KSVS 021545Z 22008KT 31/16 A3003 RMK A01 T03130157  RH  041%=      5-min Rain = 0
KSVS 021550Z 21008KT 32/16 A3003 RMK A01 T03180156  RH  039%=      5-min Rain = 0
KSVS 021555Z 23007KT 32/15 A3003 RMK A01 T03150151  RH  039%=      5-min Rain = 0
KSVS 021600Z 23007KT 32/15 A3003 RMK A01 T03170151  RH  038%=      5-min Rain = 0
KSVS 021605Z 22007KT 32/15 A3003 RMK A01 T03200154  RH  038%=      5-min Rain = 0
KSVS 021610Z 23007KT 32/15 A3003 RMK A01 T03200150  RH  037%=      5-min Rain = 0
KSVS 021615Z 22006KT 32/15 A3003 RMK A01 T03200153  RH  038%=      5-min Rain = 0
KSVS 021620Z 23007KT 32/15 A3003 RMK A01 T03230149  RH  037%=      5-min Rain = 0
KSVS 021625Z 24006G11KT 32/14 A3003 RMK A01 T03220142  RH  035%=      5-min Rain = 0
KSVS 021630Z 21005KT 32/14 A3003 RMK A01 T03240143  RH  035%=      5-min Rain = 0
KSVS 021635Z 24004G10KT 33/14 A3003 RMK A01 T03300143  RH  034%=      5-min Rain = 0
KSVS 021640Z 23005KT 33/15 A3003 RMK A01 T03320147  RH  034%=      5-min Rain = 0
KSVS 021645Z 21003G9KT 33/14 A3003 RMK A01 T03300141  RH  033%=      5-min Rain = 0
KSVS 021650Z 21004G9KT 33/14 A3003 RMK A01 T03320142  RH  033%=      5-min Rain = 0
KSVS 021655Z 35002KT 34/14 A3002 RMK A01 T03360139  RH  032%=      5-min Rain = 0
KSVS 021700Z 22005G11KT 34/14 A3003 RMK A01 T03350140  RH  032%=      5-min Rain = 0
KSVS 021705Z 15004G9KT 34/14 A3003 RMK A01 T03370137  RH  031%=      5-min Rain = 0
KSVS 021710Z 17005KT 34/14 A3003 RMK A01 T03390137  RH  031%=      5-min Rain = 0
KSVS 021715Z 16006KT 34/14 A3003 RMK A01 T03440136  RH  030%=      5-min Rain = 0
KSVS 021720Z 16006G11KT 34/14 A3003 RMK A01 T03400137  RH  031%=      5-min Rain = 0
KSVS 021725Z 16008KT 34/14 A3003 RMK A01 T03410137  RH  031%=      5-min Rain = 0
KSVS 021730Z 15006G12KT 34/14 A3003 RMK A01 T03430138  RH  031%=      5-min Rain = 0
KSVS 021735Z 12003KT 34/14 A3003 RMK A01 T03430138  RH  030%=      5-min Rain = 0
KSVS 021740Z 12004G12KT 35/14 A3002 RMK A01 T03470140  RH  030%=      5-min Rain = 0
KSVS 021745Z 16009G15KT 35/13 A3002 RMK A01 T03520133  RH  028%=      5-min Rain = 0
KSVS 021750Z 16009KT 36/13 A3002 RMK A01 T03560132  RH  027%=      5-min Rain = 0
KSVS 021755Z 13005G13KT 35/14 A3002 RMK A01 T03480138  RH  030%=      5-min Rain = 0
KSVS 021800Z 12009G16KT 35/14 A3002 RMK A01 T03520142  RH  030%=      5-min Rain = 0
KSVS 021805Z 14010G19KT 36/14 A3002 RMK A01 T03560140  RH  029%=      5-min Rain = 0
KSVS 021810Z 14008G18KT 35/14 A3002 RMK A01 T03540139  RH  029%=      5-min Rain = 0
KSVS 021815Z 13013G19KT 36/14 A3002 RMK A01 T03600139  RH  028%=      5-min Rain = 0
KSVS 021820Z 14009G16KT 36/14 A3002 RMK A01 T03570138  RH  028%=      5-min Rain = 0
KSVS 021825Z 13008G17KT 36/14 A3002 RMK A01 T03560138  RH  028%=      5-min Rain = 0
KSVS 021830Z 13009G17KT 35/14 A3001 RMK A01 T03530140  RH  029%=      5-min Rain = 0
KSVS 021835Z 13009G16KT 36/14 A3001 RMK A01 T03560138  RH  028%=      5-min Rain = 0
KSVS 021840Z 17010G16KT 36/14 A3001 RMK A01 T03560135  RH  028%=      5-min Rain = 0
KSVS 021845Z 13009G19KT 36/13 A3001 RMK A01 T03620131  RH  026%=      5-min Rain = 0
KSVS 021850Z 11009G18KT 36/13 A3001 RMK A01 T03600130  RH  026%=      5-min Rain = 0
KSVS 021855Z 13014G19KT 37/13 A3001 RMK A01 T03650133  RH  026%=      5-min Rain = 0
KSVS 021900Z 11011KT 36/14 A3001 RMK A01 T03600137  RH  028%=      5-min Rain = 0
KSVS 021905Z 09009G15KT 36/14 A30 RMK A01 T03580139  RH  028%=      5-min Rain = 0
KSVS 021910Z 14010G15KT 36/13 A30 RMK A01 T03590133  RH  027%=      5-min Rain = 0
KSVS 021915Z 13013G18KT 37/12 A30 RMK A01 T03680123  RH  024%=      5-min Rain = 0
KSVS 021920Z 13011G16KT 37/13 A30 RMK A01 T03660128  RH  025%=      5-min Rain = 0
KSVS 021925Z 17010KT 37/14 A30 RMK A01 T03660135  RH  026%=      5-min Rain = 0
KSVS 021930Z 14012G18KT 36/13 A30 RMK A01 T03640134  RH  026%=      5-min Rain = 0
KSVS 021935Z 13011G17KT 36/13 A30 RMK A01 T03640132  RH  026%=      5-min Rain = 0
KSVS 021940Z 17012KT 37/13 A2999 RMK A01 T03680128  RH  025%=      5-min Rain = 0
KSVS 021945Z 14008G13KT 37/13 A2999 RMK A01 T03680126  RH  024%=      5-min Rain = 0
KSVS 021950Z 13012KT 37/14 A2999 RMK A01 T03650141  RH  028%=      5-min Rain = 0
KSVS 021955Z 13008G13KT 37/14 A2999 RMK A01 T03650141  RH  027%=      5-min Rain = 0
KSVS 022000Z 14009G17KT 37/14 A2999 RMK A01 T03670139  RH  027%=      5-min Rain = 0
KSVS 022005Z 15012G17KT 36/13 A2998 RMK A01 T03610133  RH  027%=      5-min Rain = 0
KSVS 022010Z 12013KT 36/14 A2998 RMK A01 T03620135  RH  027%=      5-min Rain = 0
KSVS 022015Z 14013G19KT 37/14 A2998 RMK A01 T03660137  RH  027%=      5-min Rain = 0
KSVS 022020Z 15009KT 35/14 A2998 RMK A01 T03500136  RH  029%=      5-min Rain = 0
KSVS 022025Z 13011G18KT 35/14 A2998 RMK A01 T03500141  RH  030%=      5-min Rain = 0
KSVS 022030Z 13014G19KT 35/14 A2998 RMK A01 T03480137  RH  029%=      5-min Rain = 0
KSVS 022035Z 13014G26KT 35/13 A2998 RMK A01 T03450134  RH  029%=      5-min Rain = 0
KSVS 022040Z 13014G19KT 34/14 A2998 RMK A01 T03430137  RH  030%=      5-min Rain = 0
KSVS 022045Z 13012KT 35/14 A2998 RMK A01 T03450136  RH  030%=      5-min Rain = 0
KSVS 022050Z 13015G21KT 34/14 A2998 RMK A01 T03440139  RH  030%=      5-min Rain = 0
KSVS 022055Z 14015G21KT 35/14 A2998 RMK A01 T03460140  RH  030%=      5-min Rain = 0
KSVS 022100Z 12014G20KT 35/14 A2997 RMK A01 T03450135  RH  030%=      5-min Rain = 0
KSVS 022105Z 13014G19KT 35/13 A2997 RMK A01 T03460132  RH  029%=      5-min Rain = 0
KSVS 022110Z 13013KT 35/13 A2997 RMK A01 T03490131  RH  028%=      5-min Rain = 0
KSVS 022115Z 13013KT 36/14 A2997 RMK A01 T03600139  RH  028%=      5-min Rain = 0
KSVS 022120Z 14014KT 35/14 A2997 RMK A01 T03460139  RH  030%=      5-min Rain = 0
KSVS 022125Z 14013KT 33/15 A2997 RMK A01 T03320153  RH  036%=      5-min Rain = 0
KSVS 022130Z 12015KT 31/17 A2997 RMK A01 T03110169  RH  045%=      5-min Rain = 0
KSVS 022135Z 11010G15KT 31/18 A2997 RMK A01 T03070184  RH  051%=      5-min Rain = 0
KSVS 022140Z 12012KT 31/18 A2997 RMK A01 T03060182  RH  050%=      5-min Rain = 0
KSVS 022145Z 12012KT 30/18 A2997 RMK A01 T03030180  RH  050%=      5-min Rain = 0
KSVS 022150Z 13014KT 31/17 A2997 RMK A01 T03110166  RH  044%=      5-min Rain = 0
KSVS 022155Z 15014G20KT 31/17 A2997 RMK A01 T03140167  RH  043%=      5-min Rain = 0
KSVS 022200Z 14014KT 31/17 A2997 RMK A01 T03070170  RH  046%=      5-min Rain = 0
KSVS 022205Z 15014KT 29/18 A2998 RMK A01 T02910177  RH  053%=      5-min Rain = 0.02
KSVS 022210Z 14015G21KT 29/18 A2998 RMK A01 T02900176  RH  053%=      5-min Rain = 0
KSVS 022215Z 12013KT 29/17 A2998 RMK A01 T02910170  RH  050%=      5-min Rain = 0.01
KSVS 022220Z 11009KT 29/18 A2997 RMK A01 T02900177  RH  053%=      5-min Rain = 0
KSVS 022225Z 12009KT 29/19 A2997 RMK A01 T02930185  RH  055%=      5-min Rain = 0
KSVS 022230Z 13010KT 30/19 A2997 RMK A01 T02970190  RH  056%=      5-min Rain = 0
KSVS 022235Z 12013KT 30/17 A2997 RMK A01 T03040174  RH  048%=      5-min Rain = 0
KSVS 022240Z 13013KT 31/17 A2997 RMK A01 T03060170  RH  046%=      5-min Rain = 0
KSVS 022245Z 14012KT 31/17 A2997 RMK A01 T03070172  RH  047%=      5-min Rain = 0
KSVS 022250Z 14013G19KT 31/17 A2997 RMK A01 T03100166  RH  044%=      5-min Rain = 0
KSVS 022255Z 14012G17KT 31/17 A2997 RMK A01 T03120166  RH  044%=      5-min Rain = 0
KSVS 022300Z 13015G20KT 32/16 A2996 RMK A01 T03150163  RH  042%=      5-min Rain = 0
KSVS 022305Z 14014G19KT 32/16 A2996 RMK A01 T03160162  RH  042%=      5-min Rain = 0
KSVS 022310Z 13015KT 32/16 A2996 RMK A01 T03170160  RH  041%=      5-min Rain = 0
KSVS 022315Z 15014KT 32/16 A2996 RMK A01 T03180156  RH  039%=      5-min Rain = 0
KSVS 022320Z 13013G19KT 32/16 A2996 RMK A01 T03180159  RH  040%=      5-min Rain = 0
KSVS 022325Z 13015KT 33/16 A2996 RMK A01 T03280159  RH  038%=      5-min Rain = 0
KSVS 022330Z 13016G23KT 33/16 A2996 RMK A01 T03310155  RH  036%=      5-min Rain = 0
KSVS 022335Z 13018G23KT 34/15 A2995 RMK A01 T03350152  RH  035%=      5-min Rain = 0
KSVS 022340Z 14017G23KT 33/15 A2995 RMK A01 T03290148  RH  035%=      5-min Rain = 0
KSVS 022345Z 14015G21KT 33/15 A2995 RMK A01 T03260150  RH  036%=      5-min Rain = 0
KSVS 022350Z 14015G24KT 33/15 A2995 RMK A01 T03260146  RH  035%=      5-min Rain = 0
KSVS 022355Z 14015KT 33/14 A2996 RMK A01 T03250141  RH  034%=      5-min Rain = 0
KSVS 030000Z 14013KT 32/14 A2996 RMK A01 T03220144  RH  036%=      5-min Rain = 0
KSVS 030005Z 14011KT 32/14 A2997 RMK A01 T03210141  RH  035%=      5-min Rain = 0
KSVS 030010Z 15010KT 32/14 A2997 RMK A01 T03210142  RH  035%=      5-min Rain = 0
KSVS 030015Z 14016G22KT 32/15 A2997 RMK A01 T03190154  RH  039%=      5-min Rain = 0
KSVS 030020Z 14017G23KT 32/16 A2998 RMK A01 T03170163  RH  041%=      5-min Rain = 0
KSVS 030025Z 14017G22KT 31/16 A2998 RMK A01 T03140164  RH  042%=      5-min Rain = 0
KSVS 030030Z 14017KT 31/17 A2998 RMK A01 T03140165  RH  043%=      5-min Rain = 0
KSVS 030035Z 14016G22KT 31/17 A2998 RMK A01 T03140166  RH  043%=      5-min Rain = 0
KSVS 030040Z 14013KT 31/17 A2998 RMK A01 T03120168  RH  044%=      5-min Rain = 0
KSVS 030045Z 14014G19KT 31/17 A2999 RMK A01 T03100169  RH  045%=      5-min Rain = 0
KSVS 030050Z 13013KT 31/17 A2999 RMK A01 T03090170  RH  046%=      5-min Rain = 0
KSVS 030055Z 10011KT 31/17 A30 RMK A01 T03060172  RH  047%=      5-min Rain = 0
KSVS 030100Z 03008KT 26/16 A30 RMK A01 T02640161  RH  056%=      5-min Rain = 0
KSVS 030105Z 02013KT 25/16 A30 RMK A01 T02500160  RH  060%=      5-min Rain = 0
KSVS 030110Z 02012KT 25/16 A30 RMK A01 T02490161  RH  061%=      5-min Rain = 0
KSVS 030115Z 02013KT 25/16 A30 RMK A01 T02500161  RH  060%=      5-min Rain = 0
KSVS 030120Z 02012KT 25/16 A3001 RMK A01 T02520161  RH  060%=      5-min Rain = 0
KSVS 030125Z 03010KT 25/16 A3001 RMK A01 T02460162  RH  062%=      5-min Rain = 0
KSVS 030130Z 03011G16KT 24/17 A3002 RMK A01 T02400165  RH  066%=      5-min Rain = 0
KSVS 030135Z 03011KT 24/17 A3002 RMK A01 T02360166  RH  068%=      5-min Rain = 0
KSVS 030140Z 02013G19KT 23/17 A3003 RMK A01 T02330168  RH  070%=      5-min Rain = 0
KSVS 030145Z 01014G19KT 23/17 A3005 RMK A01 T02320169  RH  071%=      5-min Rain = 0
KSVS 030150Z 01016KT 23/17 A3005 RMK A01 T02320169  RH  071%=      5-min Rain = 0
KSVS 030155Z 02014KT 23/17 A3005 RMK A01 T02330169  RH  071%=      5-min Rain = 0
KSVS 030200Z 03011G16KT 24/17 A3005 RMK A01 T02360167  RH  069%=      5-min Rain = 0
KSVS 030205Z 01014G19KT 24/17 A3005 RMK A01 T02370166  RH  068%=      5-min Rain = 0
KSVS 030210Z 01016G21KT 24/17 A3005 RMK A01 T02360166  RH  068%=      5-min Rain = 0
KSVS 030215Z 01014KT 24/17 A3006 RMK A01 T02360165  RH  068%=      5-min Rain = 0
KSVS 030220Z 01011KT 24/16 A3006 RMK A01 T02360164  RH  067%=      5-min Rain = 0
KSVS 030225Z 01008KT 24/17 A3007 RMK A01 T02360165  RH  067%=      5-min Rain = 0
KSVS 030230Z 00008KT 24/17 A3007 RMK A01 T02350165  RH  068%=      5-min Rain = 0
KSVS 030235Z 34010G17KT 23/17 A3008 RMK A01 T02340166  RH  069%=      5-min Rain = 0
KSVS 030240Z 33012G17KT 23/16 A3008 RMK A01 T02330164  RH  069%=      5-min Rain = 0
KSVS 030245Z 34009KT 23/17 A3008 RMK A01 T02260167  RH  073%=      5-min Rain = 0
KSVS 030250Z 01008KT 22/17 A3007 RMK A01 T02240169  RH  075%=      5-min Rain = 0
KSVS 030255Z 03009KT 22/17 A3007 RMK A01 T02220169  RH  076%=      5-min Rain = 0
KSVS 030300Z 03011KT 22/17 A3007 RMK A01 T02240167  RH  074%=      5-min Rain = 0
KSVS 030305Z 02010KT 23/17 A3007 RMK A01 T02270166  RH  072%=      5-min Rain = 0
KSVS 030310Z 02012KT 23/17 A3007 RMK A01 T02290167  RH  071%=      5-min Rain = 0
KSVS 030315Z 01013KT 23/17 A3007 RMK A01 T02300167  RH  071%=      5-min Rain = 0
KSVS 030320Z 02012KT 23/17 A3008 RMK A01 T02300167  RH  071%=      5-min Rain = 0
KSVS 030325Z 01012KT 23/17 A3008 RMK A01 T02300168  RH  071%=      5-min Rain = 0
KSVS 030330Z 02010KT 23/17 A3008 RMK A01 T02310168  RH  071%=      5-min Rain = 0
KSVS 030335Z 02009KT 23/17 A3008 RMK A01 T02300169  RH  072%=      5-min Rain = 0
KSVS 030340Z 02008KT 23/17 A3009 RMK A01 T02310170  RH  072%=      5-min Rain = 0
KSVS 030345Z 03009KT 23/17 A3009 RMK A01 T02320169  RH  071%=      5-min Rain = 0
KSVS 030350Z 02008KT 23/17 A3009 RMK A01 T02310170  RH  072%=      5-min Rain = 0
KSVS 030355Z 02010KT 23/17 A301 RMK A01 T02300170  RH  073%=      5-min Rain = 0
KSVS 030400Z 02009KT 23/17 A301 RMK A01 T02280171  RH  074%=      5-min Rain = 0
KSVS 030405Z 02008KT 23/17 A301 RMK A01 T02260172  RH  075%=      5-min Rain = 0
KSVS 030410Z 02006KT 23/17 A301 RMK A01 T02250173  RH  076%=      5-min Rain = 0
KSVS 030415Z 02007KT 23/17 A301 RMK A01 T02250173  RH  076%=      5-min Rain = 0
KSVS 030420Z 03006KT 23/17 A301 RMK A01 T02250173  RH  076%=      5-min Rain = 0
KSVS 030425Z 03005KT 22/17 A301 RMK A01 T02240173  RH  077%=      5-min Rain = 0
KSVS 030430Z 05004KT 22/17 A301 RMK A01 T02240173  RH  077%=      5-min Rain = 0
KSVS 030435Z 05004KT 23/17 A301 RMK A01 T02250173  RH  077%=      5-min Rain = 0
KSVS 030440Z 05005KT 23/17 A301 RMK A01 T02260173  RH  076%=      5-min Rain = 0
KSVS 030445Z 05005KT 23/17 A301 RMK A01 T02280174  RH  075%=      5-min Rain = 0
KSVS 030450Z 06005KT 23/17 A3009 RMK A01 T02290173  RH  074%=      5-min Rain = 0
KSVS 030455Z 07005KT 23/17 A3009 RMK A01 T02300173  RH  074%=      5-min Rain = 0

Page generated in 0.0292 seconds.